Time;durP1;ratioP1;P1;durP2;ratioP2;P2;SDS_P1;SDS_P2;PMS_P1;PMS_P2;Temp;Humidity;BMP_temperature;BMP_pressure;BME280_temperature;BME280_humidity;BME280_pressure;Samples;Min_cycle;Max_cycle;Signal;HPM_P1;HPM_P2
2022/12/02 15:21:32;;;;;;;53.22;21.58;;;4.20;90.50;;;;;;4052920;27;10002398;-43
2022/12/02 15:23:59;;;;;;;;;;;4.70;90.80;;;;;;4962943;28;20044;-43
2022/12/02 15:26:26;;;;;;;49.10;20.55;;;8.10;99.90;;;;;;4975336;28;20252;-40
2022/12/02 15:28:52;;;;;;;;;;;8.40;96.60;;;;;;5023675;27;78311;-41
2022/12/02 15:31:19;;;;;;;32.50;17.67;;;10.80;93.50;;;;;;5068003;28;20443;-39
2022/12/02 15:33:46;;;;;;;24.60;15.40;;;11.00;91.50;;;;;;5000714;27;20040;-39
2022/12/02 15:36:13;;;;;;;22.83;14.38;;;12.10;91.10;;;;;;5076743;28;20408;-38
2022/12/02 15:38:41;;;;;;;21.13;13.48;;;13.00;90.60;;;;;;5068234;28;20044;-42
2022/12/02 15:41:07;;;;;;;19.73;12.98;;;13.80;90.10;;;;;;5068192;28;20045;-40
2022/12/02 15:43:34;;;;;;;18.00;12.40;;;14.50;89.00;;;;;;5067765;28;20048;-42
2022/12/02 15:46:01;;;;;;;18.73;12.30;;;15.00;87.40;;;;;;5067598;28;20143;-40
2022/12/02 15:48:28;;;;;;;18.10;11.95;;;15.50;85.70;;;;;;5068271;28;20147;-41
2022/12/02 15:50:54;;;;;;;16.98;11.85;;;16.00;83.90;;;;;;5067911;28;20420;-40
2022/12/02 15:53:21;;;;;;;17.70;11.95;;;16.30;82.20;;;;;;5066181;28;20131;-40
2022/12/02 15:55:49;;;;;;;18.52;12.43;;;16.70;80.70;;;;;;5067698;28;20045;-42
2022/12/02 15:58:16;;;;;;;15.88;11.52;;;16.90;79.10;;;;;;5067480;28;20045;-42
2022/12/02 16:00:42;;;;;;;14.98;11.32;;;17.20;77.90;;;;;;5067579;28;20135;-39
2022/12/02 16:03:09;;;;;;;16.67;11.40;;;17.40;76.70;;;;;;5067367;28;20048;-39
2022/12/02 16:05:36;;;;;;;18.35;11.88;;;17.60;75.60;;;;;;5067760;28;20059;-39
2022/12/02 16:08:03;;;;;;;15.65;11.57;;;17.80;74.70;;;;;;5067800;28;20082;-39
2022/12/02 16:10:30;;;;;;;15.23;11.05;;;18.00;73.70;;;;;;5067684;28;20405;-39
2022/12/02 16:12:58;;;;;;;16.80;11.70;;;18.10;72.90;;;;;;5066947;28;20051;-41
2022/12/02 16:15:25;;;;;;;14.50;10.57;;;18.30;72.00;;;;;;5067312;28;20055;-42
2022/12/02 16:17:51;;;;;;;13.50;10.73;;;18.40;71.40;;;;;;5067035;28;20049;-39
2022/12/02 16:20:18;;;;;;;13.25;10.82;;;18.50;70.70;;;;;;5066000;28;20048;-40
2022/12/02 16:22:45;;;;;;;14.20;11.30;;;18.60;70.00;;;;;;5066912;28;20053;-40
2022/12/02 16:25:11;;;;;;;17.98;11.65;;;18.70;69.30;;;;;;5066968;28;20138;-42
2022/12/02 16:27:38;;;;;;;15.52;11.50;;;18.80;68.30;;;;;;5066882;28;20104;-39
2022/12/02 16:30:08;;;;;;;17.40;11.75;;;18.90;67.70;;;;;;5067181;28;20041;-42
2022/12/02 16:32:35;;;;;;;14.05;11.32;;;19.00;67.00;;;;;;5055179;28;20044;-40
2022/12/02 16:35:01;;;;;;;17.10;11.27;;;19.00;66.80;;;;;;5052007;28;20158;-40
2022/12/02 16:37:28;;;;;;;14.65;10.88;;;19.10;66.40;;;;;;5052635;28;20049;-40
2022/12/02 16:39:55;;;;;;;15.82;10.95;;;19.10;65.90;;;;;;5060557;28;20352;-39
2022/12/02 16:42:22;;;;;;;16.33;11.27;;;19.20;65.50;;;;;;5061717;28;20128;-43
2022/12/02 16:44:48;;;;;;;14.68;11.55;;;19.30;65.10;;;;;;5051372;28;20045;-40
2022/12/02 16:47:16;;;;;;;15.18;10.90;;;19.30;64.70;;;;;;5053163;28;20051;-41
2022/12/02 16:49:43;;;;;;;16.10;11.30;;;19.40;64.20;;;;;;5050053;28;20049;-39
2022/12/02 16:52:10;;;;;;;13.68;10.70;;;19.40;63.90;;;;;;5053397;28;20041;-42
2022/12/02 16:54:36;;;;;;;15.48;10.77;;;19.40;63.60;;;;;;5053117;28;20048;-40
2022/12/02 16:57:03;;;;;;;15.13;11.32;;;19.50;63.30;;;;;;5052185;28;20075;-40
2022/12/02 16:59:30;;;;;;;15.00;10.43;;;19.50;63.00;;;;;;5051623;28;20048;-41
2022/12/02 17:01:57;;;;;;;14.35;11.00;;;19.60;62.80;;;;;;5053467;28;20075;-40
2022/12/02 17:04:25;;;;;;;14.35;10.63;;;19.60;62.50;;;;;;5053041;28;20494;-40
2022/12/02 17:06:51;;;;;;;13.50;10.43;;;19.70;62.20;;;;;;5053122;28;20048;-40
2022/12/02 17:09:18;;;;;;;17.15;10.70;;;19.70;62.00;;;;;;5052685;28;20477;-42
2022/12/02 17:11:45;;;;;;;12.82;10.30;;;19.80;61.90;;;;;;5053188;28;20056;-42
2022/12/02 17:14:11;;;;;;;12.75;10.23;;;19.80;61.60;;;;;;5052967;28;20128;-41
2022/12/02 17:16:38;;;;;;;12.65;10.00;;;19.80;61.40;;;;;;5052566;28;20593;-40
2022/12/02 17:19:05;;;;;;;15.35;10.80;;;19.80;61.20;;;;;;5052952;28;20051;-40
2022/12/02 17:21:33;;;;;;;12.23;9.55;;;19.90;61.00;;;;;;5053097;28;20067;-39
2022/12/02 17:24:00;;;;;;;13.13;10.20;;;19.90;60.70;;;;;;5052367;28;20129;-40
2022/12/02 17:26:26;;;;;;;13.82;10.27;;;19.90;60.60;;;;;;5053150;28;20057;-39
2022/12/02 17:28:53;;;;;;;11.95;9.98;;;20.00;60.50;;;;;;5052467;28;20049;-39
2022/12/02 17:31:20;;;;;;;13.75;10.20;;;20.00;60.30;;;;;;5050830;28;20056;-40
2022/12/02 17:33:46;;;;;;;12.50;9.43;;;20.00;60.00;;;;;;5052191;28;20412;-40
2022/12/02 17:36:13;;;;;;;13.82;10.13;;;20.10;59.80;;;;;;5052629;28;20053;-41
2022/12/02 17:38:50;;;;;;;12.77;10.02;;;20.10;59.70;;;;;;5052280;28;20106;-39
2022/12/02 17:41:17;;;;;;;13.65;10.68;;;20.10;59.40;;;;;;5052024;28;20052;-40
2022/12/02 17:43:44;;;;;;;13.00;10.05;;;20.10;59.50;;;;;;5050931;28;20045;-40
2022/12/02 17:46:11;;;;;;;14.02;10.95;;;20.10;59.40;;;;;;5052406;28;20128;-42
2022/12/02 17:48:38;;;;;;;14.48;10.68;;;20.10;59.20;;;;;;5052008;28;20053;-42
2022/12/02 17:51:05;;;;;;;13.95;10.63;;;20.10;58.90;;;;;;5052507;28;20128;-40
2022/12/02 17:53:32;;;;;;;14.38;11.00;;;20.10;58.50;;;;;;5050792;28;20131;-39
2022/12/02 17:56:00;;;;;;;13.43;10.45;;;20.10;58.40;;;;;;5051197;28;20437;-39
2022/12/02 17:58:27;;;;;;;13.90;11.10;;;20.10;58.00;;;;;;5052513;28;20182;-38
2022/12/02 18:00:54;;;;;;;14.32;11.10;;;20.00;57.90;;;;;;5052407;28;20057;-42
2022/12/02 18:03:21;;;;;;;14.32;10.90;;;20.00;57.70;;;;;;5051320;28;20049;-40
2022/12/02 18:05:47;;;;;;;15.43;11.45;;;20.00;57.70;;;;;;5051839;28;20508;-39
2022/12/02 18:08:16;;;;;;;14.70;11.68;;;19.90;57.50;;;;;;5051665;28;20077;-40
2022/12/02 18:10:43;;;;;;;14.63;11.45;;;19.80;57.40;;;;;;5051078;28;20077;-39
2022/12/02 18:13:11;;;;;;;15.02;11.07;;;19.90;57.90;;;;;;5049990;28;20507;-39
2022/12/02 18:15:38;;;;;;;15.00;11.80;;;19.80;57.60;;;;;;5050346;28;20128;-40
2022/12/02 18:18:05;;;;;;;15.60;12.02;;;19.80;57.50;;;;;;5051020;28;20075;-42
2022/12/02 18:20:32;;;;;;;13.35;10.75;;;19.80;57.40;;;;;;5051564;28;20045;-40
2022/12/02 18:22:58;;;;;;;16.08;11.13;;;19.80;57.70;;;;;;5051515;28;20045;-40
2022/12/02 18:25:25;;;;;;;13.63;10.55;;;19.70;57.90;;;;;;5051647;28;20405;-38
2022/12/02 18:27:52;;;;;;;13.20;10.20;;;19.80;58.00;;;;;;5051159;28;20049;-40
2022/12/02 18:30:20;;;;;;;13.35;10.88;;;19.70;57.90;;;;;;5050688;28;20593;-40
2022/12/02 18:32:47;;;;;;;15.57;10.55;;;19.70;57.80;;;;;;5050911;28;20433;-40
2022/12/02 18:35:14;;;;;;;13.82;10.15;;;19.80;57.90;;;;;;5051184;28;20080;-38
2022/12/02 18:37:40;;;;;;;13.70;10.48;;;19.70;57.80;;;;;;5051065;28;20367;-38
2022/12/02 18:40:08;;;;;;;13.80;10.27;;;19.70;57.70;;;;;;5051070;28;20044;-41
2022/12/02 18:42:35;;;;;;;13.82;10.02;;;19.80;57.60;;;;;;5049886;28;20044;-40
2022/12/02 18:45:01;;;;;;;13.02;9.68;;;19.80;57.60;;;;;;5050737;28;20049;-42
2022/12/02 18:47:29;;;;;;;13.23;10.35;;;19.80;57.50;;;;;;5050475;28;20045;-43
2022/12/02 18:49:56;;;;;;;11.95;9.43;;;19.80;57.30;;;;;;5050236;28;20394;-43
2022/12/02 18:52:23;;;;;;;11.25;9.18;;;19.80;57.30;;;;;;5049850;28;20045;-43
2022/12/02 18:54:49;;;;;;;11.63;9.07;;;19.80;57.10;;;;;;5048069;28;20053;-42
2022/12/02 18:57:16;;;;;;;13.02;9.20;;;19.80;57.10;;;;;;5051161;28;20049;-43
2022/12/02 18:59:43;;;;;;;12.40;8.77;;;19.90;57.20;;;;;;5050792;28;20045;-43
2022/12/02 19:02:10;;;;;;;11.40;8.27;;;19.90;57.00;;;;;;5051061;28;20055;-44
2022/12/02 19:04:38;;;;;;;11.07;8.30;;;20.50;57.30;;;;;;5049908;28;20508;-43
2022/12/02 19:07:05;;;;;;;10.63;8.00;;;20.00;56.80;;;;;;5050682;28;20045;-43
2022/12/02 19:09:31;;;;;;;10.32;7.82;;;20.00;56.80;;;;;;5050406;28;20594;-43
2022/12/02 19:11:58;;;;;;;10.70;8.20;;;20.00;56.80;;;;;;5050663;28;20120;-42
2022/12/02 19:14:25;;;;;;;10.48;7.90;;;20.00;56.70;;;;;;5050104;28;20585;-43
2022/12/02 19:16:51;;;;;;;11.00;8.13;;;20.00;56.60;;;;;;5051103;28;20053;-43
2022/12/02 19:19:18;;;;;;;11.57;7.93;;;20.10;56.50;;;;;;5050944;28;20049;-41
2022/12/02 19:21:46;;;;;;;10.13;7.85;;;20.10;56.50;;;;;;5050505;28;20041;-43
2022/12/02 19:24:13;;;;;;;10.07;7.80;;;20.10;56.30;;;;;;5049246;28;20383;-43
2022/12/02 19:26:40;;;;;;;10.63;7.65;;;20.20;56.40;;;;;;5050979;28;20052;-44
2022/12/02 19:29:07;;;;;;;10.85;7.78;;;20.20;56.30;;;;;;5051029;28;20045;-42
2022/12/02 19:31:34;;;;;;;8.75;6.68;;;20.20;56.20;;;;;;5050398;28;20479;-43
2022/12/02 19:34:00;;;;;;;10.88;7.63;;;20.20;56.10;;;;;;5050748;28;20075;-43
2022/12/02 19:36:27;;;;;;;9.45;7.15;;;20.30;56.00;;;;;;5050756;28;20124;-43
2022/12/02 19:38:55;;;;;;;9.07;7.00;;;20.30;55.90;;;;;;5050683;28;20059;-43
2022/12/02 19:41:22;;;;;;;10.10;7.13;;;20.30;55.70;;;;;;5050419;28;20132;-43
2022/12/02 19:43:48;;;;;;;9.23;7.00;;;20.30;55.70;;;;;;5050328;28;20071;-43
2022/12/02 19:46:15;;;;;;;9.95;7.35;;;20.40;56.30;;;;;;5050753;28;20120;-42
2022/12/02 19:48:42;;;;;;;8.98;6.75;;;20.40;55.50;;;;;;5050736;28;20072;-43
2022/12/02 19:51:09;;;;;;;9.55;6.82;;;20.40;55.40;;;;;;5047842;28;20112;-40
2022/12/02 19:53:36;;;;;;;9.63;7.00;;;20.40;55.40;;;;;;5050566;28;20057;-40
2022/12/02 19:56:04;;;;;;;10.13;6.72;;;20.40;55.30;;;;;;5050230;28;20057;-40
2022/12/02 19:58:31;;;;;;;7.93;6.40;;;20.50;55.20;;;;;;5048975;28;20093;-40
2022/12/02 20:00:57;;;;;;;8.07;6.20;;;20.50;55.20;;;;;;5050149;28;20041;-37
2022/12/02 20:03:24;;;;;;;9.02;6.60;;;20.50;55.20;;;;;;5049745;28;20419;-42
2022/12/02 20:05:51;;;;;;;7.72;5.95;;;20.50;55.10;;;;;;5049878;28;20051;-40
2022/12/02 20:08:18;;;;;;;8.40;6.10;;;20.50;55.00;;;;;;5053924;28;20127;-39
2022/12/02 20:10:44;;;;;;;7.80;6.35;;;20.60;55.00;;;;;;5053933;28;20060;-40
2022/12/02 20:13:13;;;;;;;8.68;6.30;;;20.60;55.00;;;;;;5052893;28;20486;-40
2022/12/02 20:15:39;;;;;;;8.05;6.00;;;20.60;54.80;;;;;;5053904;28;20088;-40
2022/12/02 20:18:06;;;;;;;9.85;6.40;;;20.70;54.90;;;;;;5053627;28;20045;-40
2022/12/02 20:20:33;;;;;;;7.50;6.38;;;20.70;54.80;;;;;;5053802;28;20394;-42
2022/12/02 20:22:59;;;;;;;8.57;6.10;;;20.70;54.70;;;;;;5053832;28;20092;-39
2022/12/02 20:25:26;;;;;;;7.07;5.72;;;20.70;54.60;;;;;;5053954;28;20075;-40
2022/12/02 20:27:53;;;;;;;7.65;6.13;;;20.80;54.60;;;;;;5053953;28;20076;-39
2022/12/02 20:30:21;;;;;;;7.90;5.60;;;20.80;54.50;;;;;;5053758;28;20084;-40
2022/12/02 20:32:48;;;;;;;8.32;6.00;;;20.80;54.30;;;;;;5051961;28;20116;-40
2022/12/02 20:35:14;;;;;;;6.82;5.78;;;20.90;54.40;;;;;;5052712;28;20079;-40
2022/12/02 20:37:41;;;;;;;7.68;5.78;;;20.90;54.30;;;;;;5053747;28;20073;-42
2022/12/02 20:40:09;;;;;;;7.88;6.15;;;20.90;54.20;;;;;;5015026;28;27401;-41
2022/12/02 20:42:36;;;;;;;7.30;5.43;;;21.00;54.10;;;;;;5029703;28;20060;-43
2022/12/02 20:45:03;;;;;;;6.85;5.47;;;21.00;54.10;;;;;;5027546;28;20097;-40
2022/12/02 20:47:31;;;;;;;7.53;6.15;;;21.00;54.00;;;;;;5029488;28;20057;-42
2022/12/02 20:49:57;;;;;;;9.43;5.95;;;21.00;56.20;;;;;;5029576;28;20064;-42
2022/12/02 20:52:24;;;;;;;7.20;5.85;;;21.00;53.80;;;;;;5029501;28;20087;-40
2022/12/02 20:54:51;;;;;;;7.65;6.13;;;21.10;53.80;;;;;;5029404;28;20379;-40
2022/12/02 20:57:17;;;;;;;7.32;5.82;;;21.10;53.60;;;;;;5028892;28;20061;-43
2022/12/02 20:59:44;;;;;;;7.28;5.88;;;21.10;53.60;;;;;;5030835;28;20563;-41
2022/12/02 21:02:11;;;;;;;7.38;5.68;;;21.20;53.50;;;;;;5027939;28;20052;-40
2022/12/02 21:04:39;;;;;;;7.53;5.47;;;21.20;53.50;;;;;;5030684;28;20041;-40
2022/12/02 21:07:06;;;;;;;7.13;5.88;;;21.20;53.30;;;;;;5028641;28;20107;-40
2022/12/02 21:09:33;;;;;;;6.95;5.50;;;21.20;53.30;;;;;;5027464;28;20067;-39
2022/12/02 21:12:00;;;;;;;7.40;5.82;;;21.20;53.20;;;;;;5032842;28;20561;-42
2022/12/02 21:14:27;;;;;;;7.57;5.57;;;21.30;53.10;;;;;;5032849;28;20504;-40
2022/12/02 21:16:53;;;;;;;8.95;6.28;;;21.30;53.10;;;;;;5032243;28;20053;-43
2022/12/02 21:19:20;;;;;;;6.88;5.15;;;21.30;53.00;;;;;;5032453;28;20141;-42
2022/12/02 21:21:48;;;;;;;7.10;5.50;;;21.40;53.00;;;;;;5032913;28;20132;-42
2022/12/02 21:24:15;;;;;;;7.28;5.55;;;21.40;52.90;;;;;;5032908;28;20049;-41
2022/12/02 21:26:42;;;;;;;7.35;5.50;;;21.40;52.80;;;;;;5033079;28;20124;-43
2022/12/02 21:29:09;;;;;;;7.70;5.60;;;21.40;52.70;;;;;;5033029;28;20124;-41
2022/12/02 21:31:35;;;;;;;6.93;5.45;;;21.40;52.70;;;;;;5032486;28;20042;-43
2022/12/02 21:34:02;;;;;;;6.72;5.28;;;21.50;52.60;;;;;;5031945;28;20494;-41
2022/12/02 21:36:29;;;;;;;7.97;5.60;;;21.50;52.60;;;;;;5032196;28;20049;-42
2022/12/02 21:38:57;;;;;;;7.80;5.70;;;21.50;52.50;;;;;;5030529;28;20052;-43
2022/12/02 21:41:23;;;;;;;6.25;5.32;;;21.50;52.30;;;;;;5032526;28;20049;-39
2022/12/02 21:43:50;;;;;;;6.65;5.40;;;21.50;52.30;;;;;;5030608;28;20049;-42
2022/12/02 21:46:17;;;;;;;7.30;5.32;;;21.50;52.20;;;;;;5032379;28;20442;-43
2022/12/02 21:48:44;;;;;;;6.53;5.35;;;21.50;52.20;;;;;;5032010;28;20053;-43
2022/12/02 21:51:10;;;;;;;6.55;5.57;;;21.50;52.10;;;;;;5022140;28;20045;-43
2022/12/02 21:53:37;;;;;;;6.43;5.38;;;21.60;52.00;;;;;;5032075;28;20049;-43
2022/12/02 21:56:06;;;;;;;6.03;5.00;;;21.60;52.00;;;;;;5032180;28;20072;-43
2022/12/02 21:58:32;;;;;;;6.68;5.28;;;21.60;51.80;;;;;;5032327;28;20056;-43
2022/12/02 22:03:44;;;;;;;6.22;5.03;;;21.70;51.80;;;;;;5031898;28;20049;-43
2022/12/02 22:06:11;;;;;;;6.43;5.03;;;21.60;51.90;;;;;;5031414;28;20041;-38
2022/12/02 22:08:37;;;;;;;7.22;5.28;;;21.60;51.70;;;;;;5032450;28;20128;-44
2022/12/02 22:11:06;;;;;;;6.20;5.00;;;21.70;51.60;;;;;;5031857;28;20487;-44
2022/12/02 22:13:32;;;;;;;6.70;5.32;;;21.70;51.50;;;;;;5031535;28;20052;-44
2022/12/02 22:15:59;;;;;;;6.70;5.10;;;21.70;51.50;;;;;;5031627;28;20501;-44
2022/12/02 22:18:26;;;;;;;6.55;5.43;;;21.70;51.50;;;;;;5031906;28;20159;-46
2022/12/02 22:20:52;;;;;;;6.53;5.10;;;21.80;51.40;;;;;;5031644;28;20150;-45
2022/12/02 22:23:19;;;;;;;7.53;5.60;;;21.80;52.00;;;;;;5027362;28;20405;-46
2022/12/02 22:25:46;;;;;;;7.65;5.55;;;21.80;51.40;;;;;;5031154;28;20136;-46
2022/12/02 22:28:14;;;;;;;7.80;5.90;;;21.70;51.20;;;;;;5031852;28;20055;-46
2022/12/02 22:30:40;;;;;;;5.80;4.90;;;21.80;51.10;;;;;;5029953;28;20050;-45
2022/12/02 22:33:07;;;;;;;6.53;5.25;;;21.80;51.10;;;;;;5030411;28;20041;-46
2022/12/02 22:35:34;;;;;;;6.88;5.38;;;21.80;51.00;;;;;;5031409;28;20463;-46
2022/12/02 22:38:01;;;;;;;7.00;5.80;;;21.80;51.00;;;;;;5031596;28;20049;-45
2022/12/02 22:40:27;;;;;;;7.70;5.60;;;21.70;50.90;;;;;;5031378;28;20490;-44
2022/12/02 22:42:54;;;;;;;8.23;5.45;;;21.80;50.90;;;;;;5031088;28;20410;-42
2022/12/02 22:45:22;;;;;;;7.22;5.63;;;21.70;50.80;;;;;;5030989;28;20045;-43
2022/12/02 22:47:49;;;;;;;7.18;5.50;;;21.70;50.70;;;;;;5031027;28;20045;-44
2022/12/02 22:50:16;;;;;;;9.18;6.18;;;21.70;50.80;;;;;;5030988;28;20446;-44
2022/12/02 22:52:42;;;;;;;7.82;5.28;;;21.60;50.70;;;;;;5031020;28;20049;-43
2022/12/02 22:55:09;;;;;;;7.07;5.63;;;21.60;50.90;;;;;;5022856;28;20374;-45
2022/12/02 22:57:36;;;;;;;7.47;5.70;;;21.60;51.00;;;;;;5031167;28;20045;-43
2022/12/02 23:00:04;;;;;;;7.15;5.70;;;21.30;52.70;;;;;;5030010;28;20543;-43
2022/12/02 23:02:32;;;;;;;7.50;5.45;;;21.50;51.00;;;;;;5030718;28;20129;-43
2022/12/02 23:04:58;;;;;;;7.10;5.22;;;21.50;51.00;;;;;;5030906;28;20087;-45
2022/12/02 23:07:25;;;;;;;6.57;5.20;;;21.50;51.10;;;;;;5031125;28;20437;-43
2022/12/02 23:09:52;;;;;;;7.53;5.90;;;21.40;51.00;;;;;;5029365;28;20141;-45
2022/12/02 23:12:19;;;;;;;7.60;5.60;;;21.30;51.00;;;;;;5030744;28;20045;-45
2022/12/02 23:14:45;;;;;;;8.52;6.15;;;21.30;51.00;;;;;;5030814;28;20049;-45
2022/12/02 23:17:12;;;;;;;7.68;5.90;;;21.30;51.00;;;;;;5031087;28;20057;-44
2022/12/02 23:19:40;;;;;;;7.18;5.70;;;21.20;50.90;;;;;;5030747;28;20087;-45
2022/12/02 23:22:07;;;;;;;7.25;5.85;;;21.20;50.90;;;;;;5030533;28;20143;-45
2022/12/02 23:24:33;;;;;;;6.97;5.63;;;21.20;51.60;;;;;;5030459;28;20604;-44
2022/12/02 23:27:00;;;;;;;7.60;6.30;;;21.10;50.90;;;;;;5030748;28;20045;-45
2022/12/02 23:29:27;;;;;;;8.18;6.15;;;21.00;50.80;;;;;;5030776;28;20053;-46
2022/12/02 23:31:54;;;;;;;7.50;5.85;;;21.00;50.60;;;;;;5029583;28;20046;-46
2022/12/02 23:34:20;;;;;;;8.35;6.65;;;20.90;50.50;;;;;;5030713;28;20053;-47
2022/12/02 23:36:48;;;;;;;7.32;6.07;;;20.90;50.60;;;;;;5030949;28;20049;-45
2022/12/02 23:39:15;;;;;;;7.75;6.40;;;20.70;50.50;;;;;;5030901;28;20049;-46
2022/12/02 23:41:42;;;;;;;7.90;6.18;;;20.70;50.60;;;;;;5031522;28;20059;-45
2022/12/02 23:44:08;;;;;;;9.30;6.47;;;20.60;50.50;;;;;;5034424;28;20056;-43
2022/12/02 23:46:35;;;;;;;7.60;6.18;;;20.60;50.60;;;;;;5034728;28;20053;-45
2022/12/02 23:49:02;;;;;;;8.18;6.22;;;20.50;50.60;;;;;;5026306;28;20049;-44
2022/12/02 23:51:28;;;;;;;7.80;6.03;;;20.50;50.70;;;;;;5034297;28;20490;-43
2022/12/02 23:53:57;;;;;;;8.02;6.25;;;20.40;50.70;;;;;;5032928;28;20125;-45
2022/12/02 23:56:23;;;;;;;8.73;6.88;;;20.30;50.70;;;;;;5034654;28;20053;-44
2022/12/02 23:58:50;;;;;;;7.28;6.07;;;20.30;50.70;;;;;;5034618;28;20056;-43
